Time;durP1;ratioP1;P1;durP2;ratioP2;P2;SDS_P1;SDS_P2;PMS_P1;PMS_P2;Temp;Humidity;BMP_temperature;BMP_pressure;BME280_temperature;BME280_humidity;BME280_pressure;Samples;Min_cycle;Max_cycle;Signal;HPM_P1;HPM_P2
2021/04/08 00:00:53;;;;;;;;;;;6.40;62.60;;;;;;5031472;28;20453;-56
2021/04/08 00:03:18;;;;;;;;;;;6.40;62.60;;;;;;5034145;28;19958;-56
2021/04/08 00:05:43;;;;;;;;;;;6.40;62.60;;;;;;5034281;28;19913;-57
2021/04/08 00:08:09;;;;;;;;;;;6.40;62.70;;;;;;5033536;28;19909;-56
2021/04/08 00:10:34;;;;;;;;;;;6.40;62.80;;;;;;5034394;28;20435;-56
2021/04/08 00:13:00;;;;;;;;;;;6.40;62.60;;;;;;5032653;28;20176;-59
2021/04/08 00:15:25;;;;;;;;;;;6.40;62.60;;;;;;5015648;28;19987;-57
2021/04/08 00:17:51;;;;;;;;;;;6.40;62.70;;;;;;5034919;28;20360;-59
2021/04/08 00:20:17;;;;;;;;;;;6.40;62.70;;;;;;5024730;28;19917;-58
2021/04/08 00:22:42;;;;;;;;;;;6.30;62.70;;;;;;5033476;28;20322;-57
2021/04/08 00:25:08;;;;;;;;;;;6.40;62.80;;;;;;5034671;28;19963;-58
2021/04/08 00:27:34;;;;;;;;;;;6.40;62.80;;;;;;5035070;28;19916;-57
2021/04/08 00:29:59;;;;;;;;;;;6.30;62.60;;;;;;5027738;28;19909;-56
2021/04/08 00:32:24;;;;;;;;;;;6.30;62.70;;;;;;5018871;28;19909;-59
2021/04/08 00:34:50;;;;;;;;;;;6.30;62.70;;;;;;5034285;28;19948;-58
2021/04/08 00:37:15;;;;;;;;;;;6.30;62.80;;;;;;5036650;28;19924;-59
2021/04/08 00:39:41;;;;;;;;;;;6.30;62.80;;;;;;5016511;28;19982;-58
2021/04/08 00:42:06;;;;;;;;;;;6.30;62.80;;;;;;5035126;28;20370;-59
2021/04/08 00:44:32;;;;;;;;;;;6.30;62.90;;;;;;5034194;28;19913;-57
2021/04/08 00:46:57;;;;;;;;;;;6.30;62.90;;;;;;5036438;28;20284;-57
2021/04/08 00:49:23;;;;;;;;;;;6.30;62.90;;;;;;5034305;28;20305;-57
2021/04/08 00:51:48;;;;;;;;;;;6.30;62.90;;;;;;5034755;28;19982;-56
2021/04/08 00:54:13;;;;;;;;;;;6.30;63.00;;;;;;5028889;28;20286;-61
2021/04/08 00:56:39;;;;;;;;;;;6.30;63.00;;;;;;5034720;28;19916;-57
2021/04/08 00:59:04;;;;;;;;;;;6.20;63.00;;;;;;5015899;28;19912;-56
2021/04/08 01:01:30;;;;;;;;;;;6.20;63.00;;;;;;5033901;28;20284;-59
2021/04/08 01:03:55;;;;;;;;;;;6.20;63.00;;;;;;5033335;28;19939;-56
2021/04/08 01:06:21;;;;;;;;;;;6.20;63.00;;;;;;5033829;28;19913;-59
2021/04/08 01:08:46;;;;;;;;;;;6.20;63.00;;;;;;5030751;28;19909;-58
2021/04/08 01:11:12;;;;;;;;;;;6.20;63.10;;;;;;5031538;28;19917;-56
2021/04/08 01:13:37;;;;;;;;;;;6.20;63.10;;;;;;5033050;28;19941;-57
2021/04/08 01:16:07;;;;;;;;;;;6.20;63.10;;;;;;5031235;28;20395;-55
2021/04/08 01:18:33;;;;;;;;;;;6.20;63.10;;;;;;5025447;28;20020;-58
2021/04/08 01:20:59;;;;;;;;;;;6.20;63.20;;;;;;5028067;28;19952;-59
2021/04/08 01:23:30;;;;;;;;;;;6.20;63.10;;;;;;5031935;28;19952;-59
2021/04/08 01:26:14;;;;;;;;;;;6.20;63.20;;;;;;5033405;28;19921;-57
2021/04/08 01:28:43;;;;;;;;;;;6.10;63.20;;;;;;5032728;28;19916;-59
2021/04/08 01:31:09;;;;;;;;;;;6.10;63.30;;;;;;5013368;28;19916;-59
2021/04/08 01:33:38;;;;;;;;;;;6.10;63.30;;;;;;5011764;28;19913;-59
2021/04/08 01:36:07;;;;;;;;;;;6.10;63.20;;;;;;5031654;28;20032;-56
2021/04/08 01:38:38;;;;;;;;;;;6.10;63.20;;;;;;5032530;28;20408;-56
2021/04/08 01:41:04;;;;;;;;;;;6.10;63.30;;;;;;5032526;28;19921;-57
2021/04/08 01:43:33;;;;;;;;;;;6.10;63.40;;;;;;5030499;28;19924;-59
2021/04/08 01:45:59;;;;;;;;;;;6.10;63.30;;;;;;5015222;28;19936;-56
2021/04/08 01:48:25;;;;;;;;;;;6.10;63.20;;;;;;5028921;28;20404;-56
2021/04/08 01:50:53;;;;;;;;;;;6.10;63.30;;;;;;5015605;28;20003;-58
2021/04/08 01:53:18;;;;;;;;;;;6.10;63.30;;;;;;5031438;28;20262;-59
2021/04/08 01:55:44;;;;;;;;;;;6.10;63.40;;;;;;5015519;28;19921;-56
2021/04/08 01:58:09;;;;;;;;;;;6.10;63.40;;;;;;5032520;28;19981;-58
2021/04/08 02:00:35;;;;;;;;;;;6.00;63.20;;;;;;5013726;28;19914;-58
2021/04/08 02:03:00;;;;;;;;;;;6.00;63.20;;;;;;5029212;28;20391;-59
2021/04/08 02:05:26;;;;;;;;;;;6.00;63.20;;;;;;5015339;28;19962;-56
2021/04/08 02:07:52;;;;;;;;;;;6.00;63.40;;;;;;5013236;28;20254;-57
2021/04/08 02:10:17;;;;;;;;;;;6.00;63.30;;;;;;5033456;28;19917;-56
2021/04/08 02:12:44;;;;;;;;;;;6.00;63.30;;;;;;5026100;28;20288;-58
2021/04/08 02:15:10;;;;;;;;;;;6.00;63.30;;;;;;5037421;28;20407;-60
2021/04/08 02:17:35;;;;;;;;;;;6.00;63.30;;;;;;5042391;28;19982;-58
2021/04/08 02:20:04;;;;;;;;;;;6.00;63.30;;;;;;5018754;28;19920;-59
2021/04/08 02:22:30;;;;;;;;;;;5.90;63.20;;;;;;5034017;28;19909;-59
2021/04/08 02:24:55;;;;;;;;;;;5.90;63.20;;;;;;5018010;28;19923;-57
2021/04/08 02:27:21;;;;;;;;;;;5.90;63.30;;;;;;5027355;28;19920;-56
2021/04/08 02:29:46;;;;;;;;;;;5.90;63.60;;;;;;5033659;28;20379;-59
2021/04/08 02:32:12;;;;;;;;;;;5.90;63.20;;;;;;5029175;28;19913;-60
2021/04/08 02:34:37;;;;;;;;;;;5.90;63.40;;;;;;5018306;28;19925;-58
2021/04/08 02:37:03;;;;;;;;;;;5.90;63.40;;;;;;5033588;28;20005;-57
2021/04/08 02:39:28;;;;;;;;;;;5.90;63.40;;;;;;5034371;28;19913;-56
2021/04/08 02:41:54;;;;;;;;;;;5.80;63.40;;;;;;5014948;28;19913;-58
2021/04/08 02:44:20;;;;;;;;;;;5.80;63.30;;;;;;5018917;28;20140;-58
2021/04/08 02:46:46;;;;;;;;;;;5.80;63.30;;;;;;5033787;28;19916;-56
2021/04/08 02:49:11;;;;;;;;;;;5.80;63.30;;;;;;5036927;28;19913;-59
2021/04/08 02:51:47;;;;;;;;;;;5.80;63.30;;;;;;5026901;28;19915;-60
2021/04/08 02:54:25;;;;;;;;;;;5.80;63.30;;;;;;5032821;28;19917;-57
2021/04/08 02:56:51;;;;;;;;;;;5.80;63.40;;;;;;5036995;28;19909;-56
2021/04/08 02:59:43;;;;;;;;;;;5.80;63.40;;;;;;5015775;28;19917;-59
2021/04/08 03:02:09;;;;;;;;;;;5.80;63.30;;;;;;5028115;28;20347;-59
2021/04/08 03:04:41;;;;;;;;;;;5.80;63.40;;;;;;5027276;28;19948;-60
2021/04/08 03:07:06;;;;;;;;;;;5.80;63.40;;;;;;5035986;28;19994;-59
2021/04/08 03:09:35;;;;;;;;;;;5.70;63.30;;;;;;5029043;28;19953;-58
2021/04/08 03:12:01;;;;;;;;;;;5.70;63.40;;;;;;5014635;28;19991;-59
2021/04/08 03:14:27;;;;;;;;;;;5.70;63.40;;;;;;5050136;28;19967;-59
2021/04/08 03:16:52;;;;;;;;;;;5.70;63.50;;;;;;5018750;28;19917;-60
2021/04/08 03:19:20;;;;;;;;;;;5.70;63.50;;;;;;5029743;28;20273;-57
2021/04/08 03:21:46;;;;;;;;;;;5.70;63.60;;;;;;5014631;28;19913;-57
2021/04/08 03:24:11;;;;;;;;;;;5.70;63.40;;;;;;5030111;28;19975;-58
2021/04/08 03:26:37;;;;;;;;;;;5.70;63.40;;;;;;5036970;28;19916;-58
2021/04/08 03:29:02;;;;;;;;;;;5.70;63.40;;;;;;5029522;28;19909;-56
2021/04/08 03:31:28;;;;;;;;;;;5.70;63.40;;;;;;5017174;28;19913;-59
2021/04/08 03:33:53;;;;;;;;;;;5.60;63.40;;;;;;5029831;28;19920;-59
2021/04/08 03:36:19;;;;;;;;;;;5.60;63.40;;;;;;5014747;28;19967;-56
2021/04/08 03:38:44;;;;;;;;;;;5.60;63.40;;;;;;5030384;28;20397;-59
2021/04/08 03:41:10;;;;;;;;;;;5.60;63.40;;;;;;5037351;28;19925;-55
2021/04/08 03:43:35;;;;;;;;;;;5.70;63.60;;;;;;5027146;28;19959;-57
2021/04/08 03:46:01;;;;;;;;;;;5.60;63.50;;;;;;5026575;28;19917;-57
2021/04/08 03:48:27;;;;;;;;;;;5.60;63.40;;;;;;5027820;28;19909;-58
2021/04/08 03:50:53;;;;;;;;;;;5.60;63.60;;;;;;5029246;28;20118;-57
2021/04/08 03:53:18;;;;;;;;;;;5.50;63.60;;;;;;5027817;28;20364;-60
2021/04/08 03:55:44;;;;;;;;;;;5.50;63.60;;;;;;5019586;28;19920;-59
2021/04/08 03:58:09;;;;;;;;;;;5.50;63.60;;;;;;5029983;28;19909;-60
2021/04/08 04:00:34;;;;;;;;;;;5.50;63.60;;;;;;5019317;28;20395;-59
2021/04/08 04:03:00;;;;;;;;;;;5.50;63.60;;;;;;5028391;28;19913;-57
2021/04/08 04:05:25;;;;;;;;;;;5.50;63.60;;;;;;5033827;28;19913;-57
2021/04/08 04:07:51;;;;;;;;;;;5.50;63.70;;;;;;5027760;28;19909;-58
2021/04/08 04:10:20;;;;;;;;;;;5.40;63.70;;;;;;5018161;28;19927;-59
2021/04/08 04:12:45;;;;;;;;;;;5.40;63.80;;;;;;5033261;28;20304;-60
2021/04/08 04:15:11;;;;;;;;;;;5.40;63.70;;;;;;5019482;28;21235;-58
2021/04/08 04:17:36;;;;;;;;;;;5.40;63.70;;;;;;5027606;28;20015;-58
2021/04/08 04:20:03;;;;;;;;;;;5.40;63.70;;;;;;5033384;28;19920;-57
2021/04/08 04:22:29;;;;;;;;;;;5.40;63.70;;;;;;5032926;28;19917;-59
2021/04/08 04:24:54;;;;;;;;;;;5.40;63.80;;;;;;5035492;28;19970;-59
2021/04/08 04:27:19;;;;;;;;;;;5.40;63.70;;;;;;5033393;28;19910;-57
2021/04/08 04:29:45;;;;;;;;;;;5.40;63.80;;;;;;5026231;28;20337;-56
2021/04/08 04:32:10;;;;;;;;;;;5.40;63.80;;;;;;5033241;28;19975;-56
2021/04/08 04:34:36;;;;;;;;;;;5.30;63.80;;;;;;5052971;28;20015;-60
2021/04/08 04:37:02;;;;;;;;;;;5.40;63.90;;;;;;5025881;28;19913;-57
2021/04/08 04:39:27;;;;;;;;;;;5.30;63.90;;;;;;5019065;28;20382;-57
2021/04/08 04:41:53;;;;;;;;;;;5.30;63.90;;;;;;5033721;28;19909;-58
2021/04/08 04:44:18;;;;;;;;;;;5.30;63.90;;;;;;5040240;28;19913;-55
2021/04/08 04:46:44;;;;;;;;;;;5.30;63.90;;;;;;5037029;28;19920;-58
2021/04/08 04:49:09;;;;;;;;;;;5.30;64.00;;;;;;5035891;28;20399;-60
2021/04/08 04:51:34;;;;;;;;;;;5.30;63.90;;;;;;5036043;28;19917;-58
2021/04/08 04:54:00;;;;;;;;;;;5.30;63.90;;;;;;5036762;28;19913;-55
2021/04/08 04:56:25;;;;;;;;;;;5.20;63.90;;;;;;5037001;28;20406;-60
2021/04/08 04:58:51;;;;;;;;;;;5.20;63.90;;;;;;5042688;28;19908;-60
2021/04/08 05:01:16;;;;;;;;;;;5.20;64.00;;;;;;5033561;28;19917;-58
2021/04/08 05:03:42;;;;;;;;;;;5.20;64.00;;;;;;5027886;28;19924;-58
2021/04/08 05:06:07;;;;;;;;;;;5.20;64.00;;;;;;5035596;28;19913;-57
2021/04/08 05:08:33;;;;;;;;;;;5.20;63.90;;;;;;5040623;28;20000;-59
2021/04/08 05:10:58;;;;;;;;;;;5.20;64.00;;;;;;5030280;28;20272;-59
2021/04/08 05:13:24;;;;;;;;;;;5.10;63.90;;;;;;5013563;28;20772;-60
2021/04/08 05:15:49;;;;;;;;;;;5.10;64.00;;;;;;5034313;28;19975;-57
2021/04/08 05:18:15;;;;;;;;;;;5.10;64.00;;;;;;5035616;28;19919;-59
2021/04/08 05:20:40;;;;;;;;;;;5.10;64.00;;;;;;5035732;28;19913;-59
2021/04/08 05:23:06;;;;;;;;;;;5.10;64.00;;;;;;5040630;28;19912;-56
2021/04/08 05:25:31;;;;;;;;;;;5.10;64.00;;;;;;5029741;28;19916;-59
2021/04/08 05:27:57;;;;;;;;;;;5.10;64.10;;;;;;5036030;28;19916;-56
2021/04/08 05:30:22;;;;;;;;;;;5.10;64.10;;;;;;5034406;28;19913;-55
2021/04/08 05:32:48;;;;;;;;;;;5.10;64.20;;;;;;5041273;28;19955;-57
2021/04/08 05:35:13;;;;;;;;;;;5.10;64.10;;;;;;5035845;28;19923;-61
2021/04/08 05:37:39;;;;;;;;;;;5.10;64.20;;;;;;5041613;28;19909;-58
2021/04/08 05:40:05;;;;;;;;;;;5.10;64.20;;;;;;5036056;28;20292;-57
2021/04/08 05:42:30;;;;;;;;;;;5.10;64.20;;;;;;5040219;28;20326;-60
2021/04/08 05:44:55;;;;;;;;;;;5.10;64.10;;;;;;5035943;28;19909;-61
2021/04/08 05:47:21;;;;;;;;;;;5.00;64.20;;;;;;5042077;28;19909;-60
2021/04/08 05:49:46;;;;;;;;;;;5.00;64.20;;;;;;5038049;28;20015;-60
2021/04/08 05:52:12;;;;;;;;;;;5.00;64.10;;;;;;5030915;28;20357;-58
2021/04/08 05:54:37;;;;;;;;;;;5.00;64.10;;;;;;5028711;28;19924;-57
2021/04/08 05:57:03;;;;;;;;;;;5.00;64.10;;;;;;5029606;28;19996;-55
2021/04/08 05:59:29;;;;;;;;;;;5.00;64.20;;;;;;5012409;28;19909;-60
2021/04/08 06:01:54;;;;;;;;;;;5.00;64.20;;;;;;5030596;28;20368;-57
2021/04/08 06:04:19;;;;;;;;;;;5.00;64.10;;;;;;5045468;28;19912;-56
2021/04/08 06:06:45;;;;;;;;;;;5.00;64.10;;;;;;5030231;28;19916;-58
2021/04/08 06:09:10;;;;;;;;;;;5.00;64.10;;;;;;5028698;28;19909;-57
2021/04/08 06:11:36;;;;;;;;;;;5.00;64.00;;;;;;5029381;28;19948;-58
2021/04/08 06:14:02;;;;;;;;;;;5.00;64.00;;;;;;5030059;28;19917;-61
2021/04/08 06:16:27;;;;;;;;;;;5.00;64.10;;;;;;5030491;28;19932;-56
2021/04/08 06:18:53;;;;;;;;;;;5.00;64.00;;;;;;5029904;28;19920;-58
2021/04/08 06:21:18;;;;;;;;;;;5.00;64.00;;;;;;5028303;28;19909;-60
2021/04/08 06:23:44;;;;;;;;;;;5.00;64.10;;;;;;5028795;28;19916;-60
2021/04/08 06:26:09;;;;;;;;;;;5.00;63.90;;;;;;5029667;28;19916;-60
2021/04/08 06:28:34;;;;;;;;;;;5.00;64.00;;;;;;5007571;28;19921;-59
2021/04/08 06:31:00;;;;;;;;;;;5.00;64.00;;;;;;5024594;28;19917;-59
2021/04/08 06:33:25;;;;;;;;;;;5.00;64.00;;;;;;5010691;28;19917;-59
2021/04/08 06:35:51;;;;;;;;;;;5.00;64.00;;;;;;5027696;28;19923;-58
2021/04/08 06:38:16;;;;;;;;;;;4.90;63.80;;;;;;5032345;28;20495;-57
2021/04/08 06:40:42;;;;;;;;;;;5.00;63.90;;;;;;5042663;28;19924;-56
2021/04/08 06:43:07;;;;;;;;;;;5.00;63.80;;;;;;5035121;28;20066;-57
2021/04/08 06:45:33;;;;;;;;;;;5.00;63.80;;;;;;5028874;28;19917;-61
2021/04/08 06:47:59;;;;;;;;;;;5.00;63.90;;;;;;5023931;28;19913;-58
2021/04/08 06:50:25;;;;;;;;;;;5.00;64.00;;;;;;5028997;28;19920;-60
2021/04/08 06:52:51;;;;;;;;;;;4.90;63.90;;;;;;5029046;28;19917;-59
2021/04/08 06:55:17;;;;;;;;;;;5.00;64.00;;;;;;5025139;28;20471;-59
2021/04/08 06:57:43;;;;;;;;;;;5.00;64.00;;;;;;5013105;28;19959;-57
2021/04/08 07:00:09;;;;;;;;;;;5.00;63.80;;;;;;5029339;28;20463;-59
2021/04/08 07:02:35;;;;;;;;;;;5.00;63.80;;;;;;5027698;28;19967;-60
2021/04/08 07:05:01;;;;;;;;;;;5.00;63.80;;;;;;5024745;28;19917;-59
2021/04/08 07:07:27;;;;;;;;;;;5.00;63.80;;;;;;5029601;28;19963;-58
2021/04/08 07:09:52;;;;;;;;;;;5.00;63.70;;;;;;5030287;28;19917;-58
2021/04/08 07:12:18;;;;;;;;;;;5.00;63.70;;;;;;5011252;28;19917;-59
2021/04/08 07:14:43;;;;;;;;;;;5.00;63.60;;;;;;5024487;28;19935;-58
2021/04/08 07:17:09;;;;;;;;;;;5.00;63.70;;;;;;5031955;28;19956;-55
2021/04/08 07:19:35;;;;;;;;;;;5.00;63.60;;;;;;5025280;28;19921;-59
2021/04/08 07:22:00;;;;;;;;;;;5.00;63.60;;;;;;5031551;28;19960;-61
2021/04/08 07:24:26;;;;;;;;;;;5.00;63.60;;;;;;5026968;28;19920;-57
2021/04/08 07:26:56;;;;;;;;;;;5.00;63.40;;;;;;5025413;28;19924;-59
2021/04/08 07:29:22;;;;;;;;;;;5.00;63.40;;;;;;5029589;28;19975;-58
2021/04/08 07:31:47;;;;;;;;;;;5.00;63.30;;;;;;5028618;28;19917;-56
2021/04/08 07:34:13;;;;;;;;;;;5.00;63.50;;;;;;5020166;28;20327;-58
2021/04/08 07:36:39;;;;;;;;;;;5.00;63.40;;;;;;5026929;28;19932;-61
2021/04/08 07:39:05;;;;;;;;;;;5.00;63.40;;;;;;5021146;28;19924;-58
2021/04/08 07:41:31;;;;;;;;;;;5.00;63.30;;;;;;5022145;28;20035;-58
2021/04/08 07:44:03;;;;;;;;;;;5.00;63.30;;;;;;5008201;28;20072;-58
2021/04/08 07:46:37;;;;;;;;;;;5.00;63.30;;;;;;5024577;28;19909;-59
2021/04/08 07:49:04;;;;;;;;;;;5.10;63.40;;;;;;5027043;28;19917;-58
2021/04/08 07:51:30;;;;;;;;;;;5.00;63.30;;;;;;5022919;28;19920;-56
2021/04/08 07:54:11;;;;;;;;;;;5.10;63.30;;;;;;5031981;28;19921;-61
2021/04/08 07:56:37;;;;;;;;;;;5.10;63.30;;;;;;5023577;28;19924;-62
2021/04/08 07:59:18;;;;;;;;;;;5.10;63.30;;;;;;5030589;28;19913;-61
2021/04/08 08:01:44;;;;;;;;;;;5.10;63.20;;;;;;5028072;28;20377;-57
2021/04/08 08:04:19;;;;;;;;;;;5.10;63.10;;;;;;5028287;28;20294;-59
2021/04/08 08:06:45;;;;;;;;;;;5.10;63.20;;;;;;5026308;28;19917;-62
2021/04/08 08:09:10;;;;;;;;;;;5.10;63.00;;;;;;5026928;28;20296;-59
2021/04/08 08:11:42;;;;;;;;;;;5.10;62.90;;;;;;5025644;28;20267;-57
2021/04/08 08:14:08;;;;;;;;;;;5.10;62.80;;;;;;5026196;28;19928;-61
2021/04/08 08:16:34;;;;;;;;;;;5.10;62.90;;;;;;5029105;28;19917;-62
2021/04/08 08:19:00;;;;;;;;;;;5.10;62.90;;;;;;5030030;28;19919;-58
2021/04/08 08:21:30;;;;;;;;;;;5.10;63.00;;;;;;5031067;28;20364;-60
2021/04/08 08:23:56;;;;;;;;;;;5.20;63.00;;;;;;5025884;28;20446;-57
2021/04/08 08:26:21;;;;;;;;;;;5.20;62.90;;;;;;5033607;28;19913;-60
2021/04/08 08:28:47;;;;;;;;;;;5.20;62.90;;;;;;5031035;28;19909;-58
2021/04/08 08:31:14;;;;;;;;;;;5.20;63.10;;;;;;5027481;28;20065;-59
2021/04/08 08:33:41;;;;;;;;;;;5.20;63.10;;;;;;5010622;28;20030;-58
2021/04/08 08:36:06;;;;;;;;;;;5.20;62.90;;;;;;5013337;28;20353;-59
2021/04/08 08:38:32;;;;;;;;;;;5.20;63.00;;;;;;5029991;28;19920;-62
2021/04/08 08:40:57;;;;;;;;;;;5.20;63.10;;;;;;5028565;28;20293;-59
2021/04/08 08:43:23;;;;;;;;;;;5.20;63.10;;;;;;5016341;28;20095;-61
2021/04/08 08:45:48;;;;;;;;;;;5.20;63.00;;;;;;5027972;28;19932;-59
2021/04/08 08:48:17;;;;;;;;;;;5.20;62.90;;;;;;5030285;28;20463;-59
2021/04/08 08:50:43;;;;;;;;;;;5.20;62.90;;;;;;5030194;28;19910;-60
2021/04/08 08:53:09;;;;;;;;;;;5.20;62.80;;;;;;5028067;28;19920;-57
2021/04/08 08:55:34;;;;;;;;;;;5.20;62.60;;;;;;5034397;28;19920;-60
2021/04/08 08:58:00;;;;;;;;;;;5.20;62.60;;;;;;5034283;28;20007;-60
2021/04/08 09:00:26;;;;;;;;;;;5.30;62.70;;;;;;5032979;28;20293;-59
2021/04/08 09:02:52;;;;;;;;;;;5.30;62.50;;;;;;5032258;28;20055;-60
2021/04/08 09:05:20;;;;;;;;;;;5.30;62.50;;;;;;5036816;28;19921;-56
2021/04/08 09:07:46;;;;;;;;;;;5.30;62.40;;;;;;5026943;28;19931;-60
2021/04/08 09:10:13;;;;;;;;;;;5.30;62.50;;;;;;5027549;28;19917;-57
2021/04/08 09:12:38;;;;;;;;;;;5.30;62.40;;;;;;5033102;28;19924;-58
2021/04/08 09:15:05;;;;;;;;;;;5.40;62.30;;;;;;5037692;28;20281;-61
2021/04/08 09:17:37;;;;;;;;;;;5.40;62.20;;;;;;5033815;28;20003;-58
2021/04/08 09:20:04;;;;;;;;;;;5.40;62.30;;;;;;5032541;28;19917;-58
2021/04/08 09:22:29;;;;;;;;;;;5.40;62.20;;;;;;5046778;28;19990;-58
2021/04/08 09:24:54;;;;;;;;;;;5.40;62.20;;;;;;5029343;28;20361;-58
2021/04/08 09:27:20;;;;;;;;;;;5.40;62.00;;;;;;5026348;28;19925;-58
2021/04/08 09:29:48;;;;;;;;;;;5.50;62.10;;;;;;5027623;28;19938;-56
2021/04/08 09:32:29;;;;;;;;;;;5.50;61.90;;;;;;5034889;28;20007;-61
2021/04/08 09:35:03;;;;;;;;;;;5.50;61.40;;;;;;5031990;28;19936;-59
2021/04/08 09:37:44;;;;;;;;;;;5.50;61.60;;;;;;5023243;28;19921;-59
2021/04/08 09:40:43;;;;;;;;;;;5.60;61.80;;;;;;5026284;28;19925;-59
2021/04/08 09:43:09;;;;;;;;;;;5.60;61.90;;;;;;5025554;28;19912;-58
2021/04/08 09:45:35;;;;;;;;;;;5.60;61.90;;;;;;5030514;28;19913;-58
2021/04/08 09:48:13;;;;;;;;;;;5.70;62.00;;;;;;5010048;28;19948;-59
2021/04/08 09:50:42;;;;;;;;;;;5.70;61.70;;;;;;5026013;28;19996;-56
2021/04/08 09:53:08;;;;;;;;;;;5.70;61.60;;;;;;5029587;28;19917;-59
2021/04/08 09:55:33;;;;;;;;;;;5.80;61.70;;;;;;5021475;28;19935;-59
2021/04/08 09:58:02;;;;;;;;;;;5.70;61.60;;;;;;5033596;28;19917;-61
2021/04/08 10:00:28;;;;;;;;;;;5.80;61.60;;;;;;5033726;28;20280;-57
2021/04/08 10:03:04;;;;;;;;;;;5.90;61.50;;;;;;5033658;28;19940;-59
2021/04/08 10:05:34;;;;;;;;;;;5.90;61.30;;;;;;5032578;28;19917;-59
2021/04/08 10:07:59;;;;;;;;;;;5.90;61.30;;;;;;5033362;28;19952;-60
2021/04/08 10:10:37;;;;;;;;;;;5.90;61.30;;;;;;5035030;28;20329;-60
2021/04/08 10:13:22;;;;;;;;;;;6.00;61.30;;;;;;5005826;28;19964;-58
2021/04/08 10:15:48;;;;;;;;;;;6.00;61.30;;;;;;5024453;28;19925;-58
2021/04/08 10:18:14;;;;;;;;;;;6.00;61.20;;;;;;5027302;28;20400;-61
2021/04/08 10:20:40;;;;;;;;;;;6.10;61.20;;;;;;5024699;28;19922;-56
2021/04/08 10:23:05;;;;;;;;;;;6.10;61.10;;;;;;5024947;28;19924;-60
2021/04/08 10:25:32;;;;;;;;;;;6.20;61.00;;;;;;5026408;28;19913;-60
2021/04/08 10:27:57;;;;;;;;;;;6.20;61.00;;;;;;5027345;28;19913;-60
2021/04/08 10:30:23;;;;;;;;;;;6.20;60.90;;;;;;5028836;28;19971;-58
2021/04/08 10:32:48;;;;;;;;;;;6.20;60.90;;;;;;5031779;28;19917;-58
2021/04/08 10:35:17;;;;;;;;;;;6.30;60.90;;;;;;5036758;28;19923;-58
2021/04/08 10:37:43;;;;;;;;;;;6.40;60.90;;;;;;5016016;28;20266;-59
2021/04/08 10:40:08;;;;;;;;;;;6.40;60.80;;;;;;5034925;28;20019;-60
2021/04/08 10:42:34;;;;;;;;;;;6.40;60.70;;;;;;5018109;28;19995;-56
2021/04/08 10:44:59;;;;;;;;;;;6.50;60.70;;;;;;5036877;28;19915;-57
2021/04/08 10:47:25;;;;;;;;;;;6.50;60.70;;;;;;5011403;28;19913;-59
2021/04/08 10:49:51;;;;;;;;;;;6.60;60.60;;;;;;5033433;28;20323;-58
2021/04/08 10:52:20;;;;;;;;;;;6.60;60.60;;;;;;5028560;28;19921;-59
2021/04/08 10:54:48;;;;;;;;;;;6.60;60.40;;;;;;5028840;28;19927;-58
2021/04/08 10:57:13;;;;;;;;;;;6.60;60.50;;;;;;5019180;28;19913;-59
2021/04/08 10:59:39;;;;;;;;;;;6.70;60.40;;;;;;5025791;28;20345;-59
2021/04/08 11:02:24;;;;;;;;;;;6.70;60.40;;;;;;5026608;28;20549;-58
2021/04/08 11:04:50;;;;;;;;;;;6.70;60.30;;;;;;5012284;28;19913;-57
2021/04/08 11:07:16;;;;;;;;;;;6.80;60.30;;;;;;5032976;28;19999;-58
2021/04/08 11:09:41;;;;;;;;;;;6.80;60.20;;;;;;5012941;28;19913;-61
2021/04/08 11:12:17;;;;;;;;;;;6.90;60.20;;;;;;5033064;28;19924;-58
2021/04/08 11:14:58;;;;;;;;;;;6.90;60.10;;;;;;5015527;28;19923;-58
2021/04/08 11:17:25;;;;;;;;;;;7.00;60.00;;;;;;5033334;28;19913;-60
2021/04/08 11:19:52;;;;;;;;;;;7.00;60.00;;;;;;5034484;28;19920;-58
2021/04/08 11:22:18;;;;;;;;;;;7.00;59.90;;;;;;5028177;28;19967;-57
2021/04/08 11:24:44;;;;;;;;;;;7.10;59.90;;;;;;5014247;28;19909;-57
2021/04/08 11:27:10;;;;;;;;;;;7.10;59.70;;;;;;5027200;28;20311;-60
2021/04/08 11:29:35;;;;;;;;;;;7.20;59.60;;;;;;5028885;28;19913;-58
2021/04/08 11:32:02;;;;;;;;;;;7.20;59.60;;;;;;5035821;28;19913;-59
2021/04/08 11:34:38;;;;;;;;;;;7.30;59.50;;;;;;5013145;28;19921;-59
2021/04/08 11:37:04;;;;;;;;;;;7.30;59.40;;;;;;5036708;28;19908;-58
2021/04/08 11:39:31;;;;;;;;;;;7.40;59.30;;;;;;5031862;28;20515;-58
2021/04/08 11:42:11;;;;;;;;;;;7.40;59.00;;;;;;5025741;28;19926;-61
2021/04/08 11:44:36;;;;;;;;;;;7.50;59.60;;;;;;5022003;28;20384;-59
2021/04/08 11:47:09;;;;;;;;;;;7.50;58.70;;;;;;5036634;28;19916;-61
2021/04/08 11:49:40;;;;;;;;;;;7.60;58.60;;;;;;5009757;28;19952;-59
2021/04/08 11:52:09;;;;;;;;;;;7.70;58.50;;;;;;5013442;28;19917;-62
2021/04/08 11:54:35;;;;;;;;;;;7.70;58.30;;;;;;5009604;28;19995;-57
2021/04/08 11:57:04;;;;;;;;;;;7.80;58.20;;;;;;5029481;28;19913;-61
2021/04/08 11:59:32;;;;;;;;;;;7.90;58.10;;;;;;5037070;28;20005;-59
2021/04/08 12:01:58;;;;;;;;;;;7.90;58.00;;;;;;5029287;28;19939;-60
2021/04/08 12:04:24;;;;;;;;;;;8.00;57.80;;;;;;5028380;28;20354;-57
2021/04/08 12:06:50;;;;;;;;;;;8.10;57.80;;;;;;5028184;28;19921;-60
2021/04/08 12:09:16;;;;;;;;;;;8.20;57.70;;;;;;5034236;28;19917;-57
2021/04/08 12:11:55;;;;;;;;;;;8.20;57.70;;;;;;5016270;28;20015;-62
2021/04/08 12:14:20;;;;;;;;;;;8.30;57.70;;;;;;5026710;28;19916;-58
2021/04/08 12:17:05;;;;;;;;;;;8.40;57.80;;;;;;5034797;28;20275;-59
2021/04/08 12:19:31;;;;;;;;;;;8.40;57.70;;;;;;5029618;28;20108;-60
2021/04/08 12:22:07;;;;;;;;;;;8.50;57.50;;;;;;5037624;28;20047;-59
2021/04/08 12:24:33;;;;;;;;;;;8.50;57.50;;;;;;5031675;28;20392;-58
2021/04/08 12:26:58;;;;;;;;;;;8.60;57.50;;;;;;5028107;28;19913;-58
2021/04/08 12:29:24;;;;;;;;;;;8.60;57.30;;;;;;5026629;28;19936;-59
2021/04/08 12:31:50;;;;;;;;;;;8.70;57.40;;;;;;5036334;28;19920;-60
2021/04/08 12:34:16;;;;;;;;;;;8.70;57.30;;;;;;5010199;28;19921;-58
2021/04/08 12:36:41;;;;;;;;;;;8.80;57.30;;;;;;5031213;28;19913;-59
2021/04/08 12:39:07;;;;;;;;;;;8.90;57.30;;;;;;5040885;28;19913;-57
2021/04/08 12:41:32;;;;;;;;;;;8.90;57.20;;;;;;5037498;28;20377;-60
2021/04/08 12:43:58;;;;;;;;;;;8.90;57.10;;;;;;5026689;28;19940;-58
2021/04/08 12:46:23;;;;;;;;;;;9.00;57.10;;;;;;5036187;28;19913;-57
2021/04/08 12:48:49;;;;;;;;;;;9.10;57.20;;;;;;5011171;28;19975;-61
2021/04/08 12:51:14;;;;;;;;;;;9.20;57.10;;;;;;5028907;28;20148;-60
2021/04/08 12:53:41;;;;;;;;;;;9.20;57.00;;;;;;5034815;28;20326;-60
2021/04/08 12:56:07;;;;;;;;;;;9.30;57.00;;;;;;5032225;28;19917;-61
2021/04/08 12:58:32;;;;;;;;;;;9.40;56.80;;;;;;5015905;28;19909;-59
2021/04/08 13:00:58;;;;;;;;;;;9.40;56.50;;;;;;5031362;28;19913;-58
2021/04/08 13:03:24;;;;;;;;;;;9.40;56.00;;;;;;5029488;28;19909;-60
2021/04/08 13:05:49;;;;;;;;;;;9.50;56.10;;;;;;5026083;28;20003;-60
2021/04/08 13:08:15;;;;;;;;;;;9.50;55.90;;;;;;5025216;28;20446;-58
2021/04/08 13:10:40;;;;;;;;;;;9.60;53.70;;;;;;5025572;28;19979;-61
2021/04/08 13:13:06;;;;;;;;;;;9.60;53.90;;;;;;5025287;28;19979;-59
2021/04/08 13:15:31;;;;;;;;;;;9.70;54.20;;;;;;5025896;28;20272;-59
2021/04/08 13:17:58;;;;;;;;;;;9.80;54.30;;;;;;5031798;28;19916;-61
2021/04/08 13:20:24;;;;;;;;;;;9.80;54.30;;;;;;5030388;28;19909;-60
2021/04/08 13:22:49;;;;;;;;;;;9.80;53.70;;;;;;5013285;28;19987;-58
2021/04/08 13:25:15;;;;;;;;;;;9.90;52.90;;;;;;5027017;28;20445;-61
2021/04/08 13:27:41;;;;;;;;;;;10.00;52.80;;;;;;5033902;28;20454;-60
2021/04/08 13:30:07;;;;;;;;;;;10.00;53.20;;;;;;5039120;28;19912;-58
2021/04/08 13:32:32;;;;;;;;;;;10.00;53.10;;;;;;5011114;28;20392;-58
2021/04/08 13:34:58;;;;;;;;;;;10.10;53.20;;;;;;5033123;28;19924;-60
2021/04/08 13:37:24;;;;;;;;;;;10.10;52.60;;;;;;5034791;28;19909;-61
2021/04/08 13:39:49;;;;;;;;;;;10.20;51.90;;;;;;5021945;28;19931;-59
2021/04/08 13:42:15;;;;;;;;;;;10.20;52.30;;;;;;5032712;28;19917;-61
2021/04/08 13:44:40;;;;;;;;;;;10.30;52.20;;;;;;5031325;28;20498;-61
2021/04/08 13:47:06;;;;;;;;;;;10.30;52.20;;;;;;5031025;28;19909;-61
2021/04/08 13:49:31;;;;;;;;;;;10.30;52.10;;;;;;5027228;28;20480;-60
2021/04/08 13:51:57;;;;;;;;;;;10.40;51.90;;;;;;5033005;28;20003;-59
2021/04/08 13:54:23;;;;;;;;;;;10.50;51.80;;;;;;5037325;28;19917;-59
2021/04/08 13:56:48;;;;;;;;;;;10.50;51.20;;;;;;5028514;28;19971;-61
2021/04/08 13:59:14;;;;;;;;;;;10.60;51.20;;;;;;5035601;28;19917;-59
2021/04/08 14:01:39;;;;;;;;;;;10.70;51.60;;;;;;5031780;28;20422;-60
2021/04/08 14:04:05;;;;;;;;;;;10.70;51.70;;;;;;5028280;28;20376;-61
2021/04/08 14:06:30;;;;;;;;;;;10.70;51.50;;;;;;5029614;28;19920;-60
2021/04/08 14:08:56;;;;;;;;;;;10.80;51.40;;;;;;5031615;28;20237;-58
2021/04/08 14:11:21;;;;;;;;;;;10.80;51.00;;;;;;5037299;28;19916;-60
2021/04/08 14:13:47;;;;;;;;;;;10.90;51.00;;;;;;5030464;28;19909;-60
2021/04/08 14:16:12;;;;;;;;;;;10.90;51.20;;;;;;5031993;28;19936;-61
2021/04/08 14:18:37;;;;;;;;;;;10.90;51.10;;;;;;5031864;28;19924;-58
2021/04/08 14:21:03;;;;;;;;;;;10.90;50.60;;;;;;5034073;28;20357;-58
2021/04/08 14:23:29;;;;;;;;;;;11.00;50.70;;;;;;5027481;28;20250;-58
2021/04/08 14:25:54;;;;;;;;;;;11.00;50.80;;;;;;5033301;28;20196;-58